sensor_id;sensor_type;location;lat;lon;timestamp;pressure;altitude;pressure_sealevel;temperature;humidity
74578;BME280;63173;49.086;33.418;2023-04-24T00:02:16;100584.31;;;10.49;69.90
74578;BME280;63173;49.086;33.418;2023-04-24T00:04:41;100577.84;;;10.45;69.74
74578;BME280;63173;49.086;33.418;2023-04-24T00:07:10;100580.81;;;10.48;68.99
74578;BME280;63173;49.086;33.418;2023-04-24T00:09:35;100585.38;;;10.53;69.28
74578;BME280;63173;49.086;33.418;2023-04-24T00:12:01;100583.50;;;10.48;67.71
74578;BME280;63173;49.086;33.418;2023-04-24T00:14:29;100577.22;;;10.53;68.90
74578;BME280;63173;49.086;33.418;2023-04-24T00:16:55;100581.34;;;10.45;67.54
74578;BME280;63173;49.086;33.418;2023-04-24T00:19:20;100580.19;;;10.56;67.78
74578;BME280;63173;49.086;33.418;2023-04-24T00:21:46;100579.72;;;10.44;67.63
74578;BME280;63173;49.086;33.418;2023-04-24T00:24:15;100578.88;;;10.54;67.86
74578;BME280;63173;49.086;33.418;2023-04-24T00:26:40;100576.16;;;10.54;66.86
74578;BME280;63173;49.086;33.418;2023-04-24T00:29:05;100579.31;;;10.66;66.40
74578;BME280;63173;49.086;33.418;2023-04-24T00:31:31;100574.38;;;10.78;66.07
74578;BME280;63173;49.086;33.418;2023-04-24T00:33:57;100577.66;;;10.75;65.54
74578;BME280;63173;49.086;33.418;2023-04-24T00:36:23;100577.91;;;10.78;67.07
74578;BME280;63173;49.086;33.418;2023-04-24T00:38:48;100575.56;;;10.62;66.68
74578;BME280;63173;49.086;33.418;2023-04-24T00:41:13;100574.22;;;10.59;67.89
74578;BME280;63173;49.086;33.418;2023-04-24T00:43:39;100568.22;;;10.67;66.49
74578;BME280;63173;49.086;33.418;2023-04-24T00:46:05;100567.09;;;10.68;65.64
74578;BME280;63173;49.086;33.418;2023-04-24T00:51:26;100565.28;;;10.54;65.90
74578;BME280;63173;49.086;33.418;2023-04-24T00:56:02;100559.28;;;10.57;68.02
74578;BME280;63173;49.086;33.418;2023-04-24T00:58:28;100564.75;;;10.47;68.45
74578;BME280;63173;49.086;33.418;2023-04-24T01:00:54;100573.19;;;10.50;67.20
74578;BME280;63173;49.086;33.418;2023-04-24T01:03:22;100568.53;;;10.56;68.42
74578;BME280;63173;49.086;33.418;2023-04-24T01:05:50;100570.72;;;10.54;67.96
74578;BME280;63173;49.086;33.418;2023-04-24T01:08:16;100570.19;;;10.47;67.94
74578;BME280;63173;49.086;33.418;2023-04-24T01:10:43;100570.78;;;10.33;67.33
74578;BME280;63173;49.086;33.418;2023-04-24T01:13:09;100569.22;;;10.22;69.42
74578;BME280;63173;49.086;33.418;2023-04-24T01:15:35;100570.59;;;10.15;69.58
74578;BME280;63173;49.086;33.418;2023-04-24T01:18:00;100574.44;;;10.14;70.15
74578;BME280;63173;49.086;33.418;2023-04-24T01:20:26;100567.63;;;10.11;69.27
74578;BME280;63173;49.086;33.418;2023-04-24T01:22:53;100571.44;;;10.15;71.18
74578;BME280;63173;49.086;33.418;2023-04-24T01:25:20;100566.53;;;10.17;71.25
74578;BME280;63173;49.086;33.418;2023-04-24T01:27:45;100561.91;;;10.23;70.94
74578;BME280;63173;49.086;33.418;2023-04-24T01:30:12;100567.06;;;10.14;68.85
74578;BME280;63173;49.086;33.418;2023-04-24T01:32:38;100566.03;;;10.10;70.72
74578;BME280;63173;49.086;33.418;2023-04-24T01:35:04;100560.56;;;10.05;70.44
74578;BME280;63173;49.086;33.418;2023-04-24T01:37:30;100558.97;;;10.04;69.99
74578;BME280;63173;49.086;33.418;2023-04-24T01:39:57;100552.69;;;10.09;69.86
74578;BME280;63173;49.086;33.418;2023-04-24T01:42:22;100554.91;;;9.97;69.89
74578;BME280;63173;49.086;33.418;2023-04-24T01:44:48;100551.66;;;9.95;69.43
74578;BME280;63173;49.086;33.418;2023-04-24T01:51:38;100547.66;;;9.52;74.59
74578;BME280;63173;49.086;33.418;2023-04-24T01:54:30;100546.31;;;9.44;74.64
74578;BME280;63173;49.086;33.418;2023-04-24T01:56:55;100545.53;;;9.44;74.25
74578;BME280;63173;49.086;33.418;2023-04-24T01:59:21;100553.38;;;9.50;73.89
74578;BME280;63173;49.086;33.418;2023-04-24T02:01:48;100544.44;;;9.55;73.20
74578;BME280;63173;49.086;33.418;2023-04-24T02:04:14;100545.78;;;9.63;73.38
74578;BME280;63173;49.086;33.418;2023-04-24T02:06:40;100544.41;;;9.60;73.76
74578;BME280;63173;49.086;33.418;2023-04-24T02:09:06;100548.22;;;9.59;74.51
74578;BME280;63173;49.086;33.418;2023-04-24T02:11:31;100543.06;;;9.52;73.54
74578;BME280;63173;49.086;33.418;2023-04-24T02:13:57;100540.09;;;9.59;71.97
74578;BME280;63173;49.086;33.418;2023-04-24T02:16:22;100538.72;;;9.57;71.70
74578;BME280;63173;49.086;33.418;2023-04-24T02:18:48;100549.00;;;9.60;72.95
74578;BME280;63173;49.086;33.418;2023-04-24T02:21:13;100549.84;;;9.60;70.99
74578;BME280;63173;49.086;33.418;2023-04-24T02:23:39;100549.28;;;9.58;71.63
74578;BME280;63173;49.086;33.418;2023-04-24T02:26:04;100547.69;;;9.57;71.89
74578;BME280;63173;49.086;33.418;2023-04-24T02:28:30;100554.75;;;9.48;73.37
74578;BME280;63173;49.086;33.418;2023-04-24T02:30:55;100551.22;;;9.47;74.44
74578;BME280;63173;49.086;33.418;2023-04-24T02:33:20;100547.69;;;9.47;73.16
74578;BME280;63173;49.086;33.418;2023-04-24T02:35:46;100552.88;;;9.38;73.15
74578;BME280;63173;49.086;33.418;2023-04-24T02:38:11;100542.56;;;9.40;72.97
74578;BME280;63173;49.086;33.418;2023-04-24T02:40:37;100546.91;;;9.26;74.94
74578;BME280;63173;49.086;33.418;2023-04-24T02:43:02;100548.53;;;9.22;74.19
74578;BME280;63173;49.086;33.418;2023-04-24T02:45:27;100553.38;;;9.35;74.19
74578;BME280;63173;49.086;33.418;2023-04-24T02:47:53;100549.84;;;9.35;73.31
74578;BME280;63173;49.086;33.418;2023-04-24T02:50:18;100548.25;;;9.34;74.31
74578;BME280;63173;49.086;33.418;2023-04-24T02:52:44;100547.69;;;9.37;73.86
74578;BME280;63173;49.086;33.418;2023-04-24T02:55:09;100545.53;;;9.49;72.79
74578;BME280;63173;49.086;33.418;2023-04-24T02:57:35;100547.66;;;9.52;73.37
74578;BME280;63173;49.086;33.418;2023-04-24T03:00:00;100540.13;;;9.44;74.26
74578;BME280;63173;49.086;33.418;2023-04-24T03:02:25;100553.91;;;9.42;73.08
74578;BME280;63173;49.086;33.418;2023-04-24T03:04:51;100552.56;;;9.45;72.87
74578;BME280;63173;49.086;33.418;2023-04-24T03:07:16;100553.09;;;9.47;74.34
74578;BME280;63173;49.086;33.418;2023-04-24T03:09:42;100554.19;;;9.51;74.24
74578;BME280;63173;49.086;33.418;2023-04-24T03:12:07;100550.94;;;9.59;72.96
74578;BME280;63173;49.086;33.418;2023-04-24T03:14:33;100554.47;;;9.55;71.99
74578;BME280;63173;49.086;33.418;2023-04-24T03:16:58;100557.72;;;9.57;72.66
74578;BME280;63173;49.086;33.418;2023-04-24T03:19:24;100560.13;;;9.58;72.16
74578;BME280;63173;49.086;33.418;2023-04-24T03:21:50;100559.06;;;9.54;72.12
74578;BME280;63173;49.086;33.418;2023-04-24T03:24:15;100564.50;;;9.44;73.17
74578;BME280;63173;49.086;33.418;2023-04-24T03:26:41;100563.44;;;9.40;73.60
74578;BME280;63173;49.086;33.418;2023-04-24T03:29:06;100571.53;;;9.55;73.37
74578;BME280;63173;49.086;33.418;2023-04-24T03:31:32;100576.97;;;9.65;73.35
74578;BME280;63173;49.086;33.418;2023-04-24T03:33:57;100576.69;;;9.67;73.09
74578;BME280;63173;49.086;33.418;2023-04-24T03:36:23;100579.13;;;9.63;72.94
74578;BME280;63173;49.086;33.418;2023-04-24T03:38:48;100584.78;;;9.77;74.17
74578;BME280;63173;49.086;33.418;2023-04-24T03:41:14;100584.00;;;9.76;73.61
74578;BME280;63173;49.086;33.418;2023-04-24T03:43:39;100587.56;;;9.52;76.60
74578;BME280;63173;49.086;33.418;2023-04-24T03:46:05;100579.69;;;9.65;76.19
74578;BME280;63173;49.086;33.418;2023-04-24T03:48:30;100583.47;;;9.64;78.31
74578;BME280;63173;49.086;33.418;2023-04-24T03:50:56;100586.22;;;9.29;79.15
74578;BME280;63173;49.086;33.418;2023-04-24T03:53:21;100583.75;;;9.52;79.93
74578;BME280;63173;49.086;33.418;2023-04-24T03:55:47;100586.47;;;9.47;78.85
74578;BME280;63173;49.086;33.418;2023-04-24T03:58:12;100588.63;;;9.45;78.96
74578;BME280;63173;49.086;33.418;2023-04-24T04:00:39;100586.19;;;9.54;80.47
74578;BME280;63173;49.086;33.418;2023-04-24T04:03:05;100588.34;;;9.57;79.36
74578;BME280;63173;49.086;33.418;2023-04-24T04:05:31;100590.00;;;9.48;82.06
74578;BME280;63173;49.086;33.418;2023-04-24T04:07:56;100591.91;;;9.32;83.22
74578;BME280;63173;49.086;33.418;2023-04-24T04:10:22;100588.09;;;9.43;83.21
74578;BME280;63173;49.086;33.418;2023-04-24T04:12:47;100587.00;;;9.49;84.06
74578;BME280;63173;49.086;33.418;2023-04-24T04:15:13;100586.19;;;9.49;84.18
74578;BME280;63173;49.086;33.418;2023-04-24T04:17:38;100583.47;;;9.49;84.67
74578;BME280;63173;49.086;33.418;2023-04-24T04:20:04;100583.22;;;9.56;86.05
74578;BME280;63173;49.086;33.418;2023-04-24T04:22:33;100583.47;;;9.59;77.74
74578;BME280;63173;49.086;33.418;2023-04-24T04:24:58;100588.34;;;9.72;75.30
74578;BME280;63173;49.086;33.418;2023-04-24T04:27:25;100586.66;;;9.96;73.51
74578;BME280;63173;49.086;33.418;2023-04-24T04:29:51;100582.00;;;10.07;72.69
74578;BME280;63173;49.086;33.418;2023-04-24T04:32:17;100578.78;;;10.10;70.44
74578;BME280;63173;49.086;33.418;2023-04-24T04:34:43;100576.81;;;10.25;71.30
74578;BME280;63173;49.086;33.418;2023-04-24T04:37:10;100582.75;;;10.32;69.34
74578;BME280;63173;49.086;33.418;2023-04-24T04:39:37;100590.09;;;10.32;70.06
74578;BME280;63173;49.086;33.418;2023-04-24T04:42:03;100583.75;;;10.52;69.50
74578;BME280;63173;49.086;33.418;2023-04-24T04:44:28;100584.25;;;10.59;68.60
74578;BME280;63173;49.086;33.418;2023-04-24T04:46:56;100582.03;;;10.66;68.85
74578;BME280;63173;49.086;33.418;2023-04-24T04:49:22;100581.09;;;10.90;68.62
74578;BME280;63173;49.086;33.418;2023-04-24T04:51:49;100582.19;;;10.89;68.93
74578;BME280;63173;49.086;33.418;2023-04-24T04:54:16;100579.56;;;10.74;66.58
74578;BME280;63173;49.086;33.418;2023-04-24T04:56:41;100583.72;;;10.62;69.05
74578;BME280;63173;49.086;33.418;2023-04-24T04:59:07;100573.97;;;10.51;70.08
74578;BME280;63173;49.086;33.418;2023-04-24T05:01:32;100583.97;;;10.65;70.98
74578;BME280;63173;49.086;33.418;2023-04-24T05:03:57;100583.59;;;10.82;71.69
74578;BME280;63173;49.086;33.418;2023-04-24T05:06:23;100589.59;;;11.17;70.98
74578;BME280;63173;49.086;33.418;2023-04-24T05:08:48;100582.38;;;11.36;70.54
74578;BME280;63173;49.086;33.418;2023-04-24T05:11:14;100583.59;;;11.54;71.75
74578;BME280;63173;49.086;33.418;2023-04-24T05:13:40;100584.00;;;11.37;71.75
74578;BME280;63173;49.086;33.418;2023-04-24T05:16:05;100583.72;;;11.39;71.48
74578;BME280;63173;49.086;33.418;2023-04-24T05:18:31;100579.22;;;11.58;71.99
74578;BME280;63173;49.086;33.418;2023-04-24T05:20:56;100585.00;;;11.80;70.78
74578;BME280;63173;49.086;33.418;2023-04-24T05:23:22;100583.63;;;12.06;70.17
74578;BME280;63173;49.086;33.418;2023-04-24T05:25:47;100573.31;;;12.27;69.19
74578;BME280;63173;49.086;33.418;2023-04-24T05:28:12;100578.75;;;12.51;67.42
74578;BME280;63173;49.086;33.418;2023-04-24T05:30:38;100580.44;;;12.47;67.27
74578;BME280;63173;49.086;33.418;2023-04-24T05:33:03;100581.41;;;12.74;65.81
74578;BME280;63173;49.086;33.418;2023-04-24T05:35:29;100579.41;;;12.98;64.14
74578;BME280;63173;49.086;33.418;2023-04-24T05:37:54;100582.13;;;12.98;63.20
74578;BME280;63173;49.086;33.418;2023-04-24T05:40:20;100578.47;;;13.27;62.84
74578;BME280;63173;49.086;33.418;2023-04-24T05:42:45;100577.97;;;13.38;62.12
74578;BME280;63173;49.086;33.418;2023-04-24T05:45:10;100575.13;;;13.30;61.93
74578;BME280;63173;49.086;33.418;2023-04-24T05:47:41;100575.09;;;13.16;63.22
74578;BME280;63173;49.086;33.418;2023-04-24T05:50:07;100573.81;;;13.59;61.77
74578;BME280;63173;49.086;33.418;2023-04-24T05:52:32;100571.69;;;13.56;61.97
74578;BME280;63173;49.086;33.418;2023-04-24T05:54:58;100571.78;;;13.65;62.30
74578;BME280;63173;49.086;33.418;2023-04-24T05:57:23;100571.81;;;13.78;61.18
74578;BME280;63173;49.086;33.418;2023-04-24T05:59:49;100563.56;;;13.83;61.72
74578;BME280;63173;49.086;33.418;2023-04-24T06:02:15;100569.41;;;14.17;59.50
74578;BME280;63173;49.086;33.418;2023-04-24T06:04:40;100571.13;;;13.86;58.36
74578;BME280;63173;49.086;33.418;2023-04-24T06:07:06;100565.16;;;13.84;58.01
74578;BME280;63173;49.086;33.418;2023-04-24T06:09:32;100572.16;;;13.90;57.04
74578;BME280;63173;49.086;33.418;2023-04-24T06:11:57;100566.09;;;13.93;57.63
74578;BME280;63173;49.086;33.418;2023-04-24T06:14:23;100564.75;;;14.04;57.28
74578;BME280;63173;49.086;33.418;2023-04-24T06:16:49;100564.59;;;14.42;56.38
74578;BME280;63173;49.086;33.418;2023-04-24T06:19:14;100567.09;;;14.52;56.33
74578;BME280;63173;49.086;33.418;2023-04-24T06:21:40;100568.94;;;14.15;57.10
74578;BME280;63173;49.086;33.418;2023-04-24T06:24:05;100558.50;;;14.17;57.75
74578;BME280;63173;49.086;33.418;2023-04-24T06:26:31;100562.47;;;14.39;57.97
74578;BME280;63173;49.086;33.418;2023-04-24T06:28:56;100560.81;;;14.65;56.65
74578;BME280;63173;49.086;33.418;2023-04-24T06:31:24;100559.88;;;14.69;57.88
74578;BME280;63173;49.086;33.418;2023-04-24T06:33:49;100556.69;;;14.89;56.54
74578;BME280;63173;49.086;33.418;2023-04-24T06:36:15;100560.13;;;14.95;57.06
74578;BME280;63173;49.086;33.418;2023-04-24T06:38:41;100566.94;;;15.20;55.72
74578;BME280;63173;49.086;33.418;2023-04-24T06:41:06;100561.75;;;15.18;55.97
74578;BME280;63173;49.086;33.418;2023-04-24T06:43:32;100570.06;;;15.49;55.23
74578;BME280;63173;49.086;33.418;2023-04-24T06:45:58;100569.44;;;15.52;53.23
74578;BME280;63173;49.086;33.418;2023-04-24T06:48:24;100567.06;;;15.59;53.21
74578;BME280;63173;49.086;33.418;2023-04-24T06:50:51;100560.78;;;15.58;54.40
74578;BME280;63173;49.086;33.418;2023-04-24T06:53:16;100569.31;;;15.87;53.57
74578;BME280;63173;49.086;33.418;2023-04-24T06:55:42;100574.09;;;16.13;53.03
74578;BME280;63173;49.086;33.418;2023-04-24T06:58:08;100565.28;;;15.85;53.08
74578;BME280;63173;49.086;33.418;2023-04-24T07:00:34;100561.50;;;15.72;51.95
74578;BME280;63173;49.086;33.418;2023-04-24T07:02:59;100562.53;;;15.85;52.24
74578;BME280;63173;49.086;33.418;2023-04-24T07:05:25;100565.19;;;15.98;51.23
74578;BME280;63173;49.086;33.418;2023-04-24T07:07:50;100559.69;;;15.98;50.76
74578;BME280;63173;49.086;33.418;2023-04-24T07:10:16;100562.88;;;15.92;50.72
74578;BME280;63173;49.086;33.418;2023-04-24T07:12:42;100566.16;;;16.02;50.47
74578;BME280;63173;49.086;33.418;2023-04-24T07:15:08;100564.59;;;16.19;50.58
74578;BME280;63173;49.086;33.418;2023-04-24T07:17:34;100560.28;;;16.26;48.84
74578;BME280;63173;49.086;33.418;2023-04-24T07:20:00;100564.41;;;16.07;49.00
74578;BME280;63173;49.086;33.418;2023-04-24T07:22:26;100566.25;;;16.28;50.52
74578;BME280;63173;49.086;33.418;2023-04-24T07:24:51;100561.38;;;16.56;48.76
74578;BME280;63173;49.086;33.418;2023-04-24T07:27:17;100558.81;;;17.19;47.93
74578;BME280;63173;49.086;33.418;2023-04-24T07:29:42;100558.31;;;16.83;47.01
74578;BME280;63173;49.086;33.418;2023-04-24T07:32:08;100554.47;;;16.84;47.76
74578;BME280;63173;49.086;33.418;2023-04-24T07:34:34;100558.97;;;17.31;46.09
74578;BME280;63173;49.086;33.418;2023-04-24T07:37:00;100556.72;;;17.16;45.11
74578;BME280;63173;49.086;33.418;2023-04-24T07:39:25;100545.69;;;17.67;43.97
74578;BME280;63173;49.086;33.418;2023-04-24T07:41:51;100553.94;;;17.67;44.33
74578;BME280;63173;49.086;33.418;2023-04-24T07:44:17;100551.78;;;18.19;43.51
74578;BME280;63173;49.086;33.418;2023-04-24T07:46:42;100547.91;;;17.82;42.80
74578;BME280;63173;49.086;33.418;2023-04-24T07:49:07;100550.38;;;18.05;44.20
74578;BME280;63173;49.086;33.418;2023-04-24T07:51:33;100552.47;;;17.36;43.08
74578;BME280;63173;49.086;33.418;2023-04-24T07:54:06;100548.19;;;18.19;42.19
74578;BME280;63173;49.086;33.418;2023-04-24T07:56:32;100542.16;;;17.33;43.34
74578;BME280;63173;49.086;33.418;2023-04-24T07:58:58;100542.50;;;17.14;43.38
74578;BME280;63173;49.086;33.418;2023-04-24T08:01:24;100538.31;;;17.25;44.17
74578;BME280;63173;49.086;33.418;2023-04-24T08:03:50;100533.88;;;17.58;44.23
74578;BME280;63173;49.086;33.418;2023-04-24T08:06:15;100542.00;;;18.01;42.37
74578;BME280;63173;49.086;33.418;2023-04-24T08:08:41;100531.69;;;17.90;41.88
74578;BME280;63173;49.086;33.418;2023-04-24T08:11:06;100541.72;;;17.85;42.08
74578;BME280;63173;49.086;33.418;2023-04-24T08:13:31;100534.41;;;17.98;43.01
74578;BME280;63173;49.086;33.418;2023-04-24T08:15:57;100543.09;;;18.38;42.64
74578;BME280;63173;49.086;33.418;2023-04-24T08:18:22;100536.47;;;17.63;43.49
74578;BME280;63173;49.086;33.418;2023-04-24T08:20:48;100538.47;;;17.37;43.58
74578;BME280;63173;49.086;33.418;2023-04-24T08:23:13;100535.22;;;17.52;42.97
74578;BME280;63173;49.086;33.418;2023-04-24T08:25:39;100537.00;;;17.06;44.22
74578;BME280;63173;49.086;33.418;2023-04-24T08:28:06;100533.00;;;17.20;45.90
74578;BME280;63173;49.086;33.418;2023-04-24T08:30:31;100530.53;;;17.44;44.17
74578;BME280;63173;49.086;33.418;2023-04-24T08:32:57;100535.19;;;18.07;42.82
74578;BME280;63173;49.086;33.418;2023-04-24T08:35:22;100537.47;;;18.05;42.34
74578;BME280;63173;49.086;33.418;2023-04-24T08:37:48;100527.72;;;18.08;43.50
74578;BME280;63173;49.086;33.418;2023-04-24T08:40:15;100518.34;;;18.38;42.54
74578;BME280;63173;49.086;33.418;2023-04-24T08:42:44;100520.41;;;18.20;43.02
74578;BME280;63173;49.086;33.418;2023-04-24T08:45:11;100518.91;;;19.14;40.47
74578;BME280;63173;49.086;33.418;2023-04-24T08:47:38;100519.16;;;18.38;39.72
74578;BME280;63173;49.086;33.418;2023-04-24T08:50:05;100515.72;;;18.50;39.32
74578;BME280;63173;49.086;33.418;2023-04-24T08:52:32;100520.41;;;18.49;39.47
74578;BME280;63173;49.086;33.418;2023-04-24T08:55:00;100513.03;;;19.03;38.75
74578;BME280;63173;49.086;33.418;2023-04-24T08:57:26;100511.78;;;18.80;39.97
74578;BME280;63173;49.086;33.418;2023-04-24T08:59:53;100510.94;;;19.00;38.83
74578;BME280;63173;49.086;33.418;2023-04-24T09:02:18;100511.56;;;18.85;39.15
74578;BME280;63173;49.086;33.418;2023-04-24T09:04:45;100502.69;;;19.21;37.86
74578;BME280;63173;49.086;33.418;2023-04-24T09:07:12;100509.41;;;19.32;38.52
74578;BME280;63173;49.086;33.418;2023-04-24T09:09:40;100501.63;;;19.25;36.26
74578;BME280;63173;49.086;33.418;2023-04-24T09:12:07;100497.31;;;19.69;35.76
74578;BME280;63173;49.086;33.418;2023-04-24T09:14:34;100501.44;;;19.87;35.58
74578;BME280;63173;49.086;33.418;2023-04-24T09:17:01;100495.63;;;19.44;34.92
74578;BME280;63173;49.086;33.418;2023-04-24T09:19:27;100493.97;;;19.63;34.97
74578;BME280;63173;49.086;33.418;2023-04-24T09:21:53;100485.94;;;20.43;34.07
74578;BME280;63173;49.086;33.418;2023-04-24T09:24:20;100490.75;;;19.61;36.32
74578;BME280;63173;49.086;33.418;2023-04-24T09:26:48;100488.91;;;19.65;36.59
74578;BME280;63173;49.086;33.418;2023-04-24T09:29:18;100485.94;;;20.43;36.26
74578;BME280;63173;49.086;33.418;2023-04-24T09:31:44;100490.91;;;20.13;36.74
74578;BME280;63173;49.086;33.418;2023-04-24T09:34:10;100475.00;;;20.58;34.49
74578;BME280;63173;49.086;33.418;2023-04-24T09:36:38;100477.00;;;20.34;35.37
74578;BME280;63173;49.086;33.418;2023-04-24T09:39:05;100475.16;;;20.02;35.77
74578;BME280;63173;49.086;33.418;2023-04-24T09:41:33;100472.09;;;20.67;34.89
74578;BME280;63173;49.086;33.418;2023-04-24T09:44:13;100460.56;;;20.25;36.21
74578;BME280;63173;49.086;33.418;2023-04-24T09:46:41;100469.50;;;20.10;34.04
74578;BME280;63173;49.086;33.418;2023-04-24T09:49:13;100463.00;;;19.91;34.24
74578;BME280;63173;49.086;33.418;2023-04-24T09:51:39;100451.53;;;20.65;33.38
74578;BME280;63173;49.086;33.418;2023-04-24T09:54:17;100444.59;;;19.70;35.95
74578;BME280;63173;49.086;33.418;2023-04-24T09:56:47;100448.75;;;19.89;35.13
74578;BME280;63173;49.086;33.418;2023-04-24T09:59:15;100446.72;;;20.89;33.97
74578;BME280;63173;49.086;33.418;2023-04-24T10:01:41;100440.53;;;20.40;33.63
74578;BME280;63173;49.086;33.418;2023-04-24T10:04:25;100439.56;;;20.60;32.67
74578;BME280;63173;49.086;33.418;2023-04-24T10:06:53;100440.69;;;20.32;33.24
74578;BME280;63173;49.086;33.418;2023-04-24T10:09:20;100444.81;;;20.26;33.10
74578;BME280;63173;49.086;33.418;2023-04-24T10:11:48;100448.50;;;20.42;32.77
74578;BME280;63173;49.086;33.418;2023-04-24T10:14:16;100443.19;;;21.32;30.15
74578;BME280;63173;49.086;33.418;2023-04-24T10:16:42;100437.06;;;22.01;29.81
74578;BME280;63173;49.086;33.418;2023-04-24T10:19:08;100431.69;;;22.42;28.88
74578;BME280;63173;49.086;33.418;2023-04-24T10:21:34;100434.56;;;21.49;30.15
74578;BME280;63173;49.086;33.418;2023-04-24T10:24:01;100427.94;;;20.67;31.10
74578;BME280;63173;49.086;33.418;2023-04-24T10:26:29;100434.06;;;20.60;30.65
74578;BME280;63173;49.086;33.418;2023-04-24T10:28:57;100423.31;;;21.26;30.78
74578;BME280;63173;49.086;33.418;2023-04-24T10:31:22;100423.69;;;22.03;30.47
74578;BME280;63173;49.086;33.418;2023-04-24T10:33:50;100409.06;;;21.87;28.95
74578;BME280;63173;49.086;33.418;2023-04-24T10:36:17;100411.47;;;21.41;29.16
74578;BME280;63173;49.086;33.418;2023-04-24T10:38:45;100415.91;;;21.62;29.48
74578;BME280;63173;49.086;33.418;2023-04-24T10:41:12;100408.88;;;22.49;28.69
74578;BME280;63173;49.086;33.418;2023-04-24T10:43:44;100402.47;;;23.02;28.38
74578;BME280;63173;49.086;33.418;2023-04-24T10:46:10;100404.44;;;23.92;26.94
74578;BME280;63173;49.086;33.418;2023-04-24T10:48:41;100396.19;;;24.52;27.14
74578;BME280;63173;49.086;33.418;2023-04-24T10:51:11;100406.09;;;23.71;27.72
74578;BME280;63173;49.086;33.418;2023-04-24T10:53:38;100402.81;;;22.78;28.45
74578;BME280;63173;49.086;33.418;2023-04-24T10:56:06;100407.34;;;21.35;30.53
74578;BME280;63173;49.086;33.418;2023-04-24T11:01:04;100405.09;;;23.14;28.08
74578;BME280;63173;49.086;33.418;2023-04-24T11:03:31;100400.06;;;23.43;28.49
74578;BME280;63173;49.086;33.418;2023-04-24T11:06:05;100404.31;;;22.03;30.66
74578;BME280;63173;49.086;33.418;2023-04-24T11:08:44;100401.44;;;21.06;31.79
74578;BME280;63173;49.086;33.418;2023-04-24T11:11:12;100400.59;;;19.98;33.84
74578;BME280;63173;49.086;33.418;2023-04-24T11:19:09;100393.47;;;21.47;31.22
74578;BME280;63173;49.086;33.418;2023-04-24T11:21:47;100389.38;;;22.07;31.71
74578;BME280;63173;49.086;33.418;2023-04-24T11:27:13;100381.72;;;22.93;29.96
74578;BME280;63173;49.086;33.418;2023-04-24T11:32:47;100381.97;;;21.45;32.10
74578;BME280;63173;49.086;33.418;2023-04-24T11:35:17;100380.16;;;21.69;33.21
74578;BME280;63173;49.086;33.418;2023-04-24T11:37:53;100380.25;;;21.88;34.35
74578;BME280;63173;49.086;33.418;2023-04-24T11:40:20;100377.13;;;21.58;34.20
74578;BME280;63173;49.086;33.418;2023-04-24T11:42:49;100383.47;;;21.43;34.70
74578;BME280;63173;49.086;33.418;2023-04-24T11:45:17;100383.81;;;20.83;34.54
74578;BME280;63173;49.086;33.418;2023-04-24T11:47:43;100381.22;;;20.74;35.19
74578;BME280;63173;49.086;33.418;2023-04-24T11:50:12;100378.41;;;20.58;36.87
74578;BME280;63173;49.086;33.418;2023-04-24T11:52:39;100375.94;;;20.69;35.86
74578;BME280;63173;49.086;33.418;2023-04-24T11:55:23;100380.50;;;20.77;34.91
74578;BME280;63173;49.086;33.418;2023-04-24T11:57:56;100373.22;;;20.29;35.24
74578;BME280;63173;49.086;33.418;2023-04-24T12:00:24;100378.88;;;20.21;36.60
74578;BME280;63173;49.086;33.418;2023-04-24T12:02:50;100377.34;;;20.35;35.54
74578;BME280;63173;49.086;33.418;2023-04-24T12:05:27;100379.25;;;20.47;37.17
74578;BME280;63173;49.086;33.418;2023-04-24T12:07:53;100378.56;;;20.78;36.05
74578;BME280;63173;49.086;33.418;2023-04-24T12:10:27;100377.03;;;20.80;37.08
74578;BME280;63173;49.086;33.418;2023-04-24T12:12:53;100380.78;;;20.72;36.12
74578;BME280;63173;49.086;33.418;2023-04-24T12:15:19;100372.59;;;19.72;37.93
74578;BME280;63173;49.086;33.418;2023-04-24T12:17:45;100385.09;;;18.89;40.76
74578;BME280;63173;49.086;33.418;2023-04-24T12:20:11;100387.34;;;18.74;42.06
74578;BME280;63173;49.086;33.418;2023-04-24T12:22:48;100390.75;;;19.04;40.67
74578;BME280;63173;49.086;33.418;2023-04-24T12:25:18;100381.63;;;18.79;42.07
74578;BME280;63173;49.086;33.418;2023-04-24T12:27:52;100380.06;;;19.03;39.61
74578;BME280;63173;49.086;33.418;2023-04-24T12:30:18;100371.25;;;18.97;38.25
74578;BME280;63173;49.086;33.418;2023-04-24T12:32:48;100372.91;;;19.22;37.81
74578;BME280;63173;49.086;33.418;2023-04-24T12:35:25;100364.31;;;19.96;36.28
74578;BME280;63173;49.086;33.418;2023-04-24T12:37:51;100362.88;;;20.14;36.19
74578;BME280;63173;49.086;33.418;2023-04-24T12:40:18;100362.53;;;20.55;35.22
74578;BME280;63173;49.086;33.418;2023-04-24T12:42:48;100356.09;;;20.24;34.12
74578;BME280;63173;49.086;33.418;2023-04-24T12:45:15;100353.25;;;20.76;33.89
74578;BME280;63173;49.086;33.418;2023-04-24T12:47:43;100352.03;;;20.61;33.47
74578;BME280;63173;49.086;33.418;2023-04-24T12:50:12;100348.00;;;21.14;33.68
74578;BME280;63173;49.086;33.418;2023-04-24T12:52:38;100336.91;;;21.76;31.61
74578;BME280;63173;49.086;33.418;2023-04-24T12:55:05;100339.75;;;22.72;29.77
74578;BME280;63173;49.086;33.418;2023-04-24T12:57:34;100333.13;;;22.76;29.83
74578;BME280;63173;49.086;33.418;2023-04-24T13:00:00;100324.44;;;22.78;29.63
74578;BME280;63173;49.086;33.418;2023-04-24T13:02:28;100328.09;;;23.27;29.57
74578;BME280;63173;49.086;33.418;2023-04-24T13:04:54;100311.56;;;24.09;28.38